sensor_id;sensor_type;location;lat;lon;timestamp;temperature;humidity
22645;DHT22;11489;50.834;6.752;2024-01-15T00:01:51;1.70;96.90
22645;DHT22;11489;50.834;6.752;2024-01-15T00:04:16;1.70;96.90
22645;DHT22;11489;50.834;6.752;2024-01-15T00:06:43;1.70;96.90
22645;DHT22;11489;50.834;6.752;2024-01-15T00:09:09;1.70;96.80
22645;DHT22;11489;50.834;6.752;2024-01-15T00:11:35;1.70;96.80
22645;DHT22;11489;50.834;6.752;2024-01-15T00:14:01;1.70;96.80
22645;DHT22;11489;50.834;6.752;2024-01-15T00:16:26;1.70;96.90
22645;DHT22;11489;50.834;6.752;2024-01-15T00:18:52;1.60;96.90
22645;DHT22;11489;50.834;6.752;2024-01-15T00:21:18;1.60;96.90
22645;DHT22;11489;50.834;6.752;2024-01-15T00:23:44;1.60;96.90
22645;DHT22;11489;50.834;6.752;2024-01-15T00:26:12;1.60;97.00
22645;DHT22;11489;50.834;6.752;2024-01-15T00:28:38;1.60;97.00
22645;DHT22;11489;50.834;6.752;2024-01-15T00:31:04;1.60;97.00
22645;DHT22;11489;50.834;6.752;2024-01-15T00:33:31;1.60;97.00
22645;DHT22;11489;50.834;6.752;2024-01-15T00:35:57;1.50;96.90
22645;DHT22;11489;50.834;6.752;2024-01-15T00:38:22;1.50;97.00
22645;DHT22;11489;50.834;6.752;2024-01-15T00:40:48;1.50;97.00
22645;DHT22;11489;50.834;6.752;2024-01-15T00:43:14;1.50;97.10
22645;DHT22;11489;50.834;6.752;2024-01-15T00:45:40;1.50;97.10
22645;DHT22;11489;50.834;6.752;2024-01-15T00:48:06;1.50;97.20
22645;DHT22;11489;50.834;6.752;2024-01-15T00:50:32;1.50;97.20
22645;DHT22;11489;50.834;6.752;2024-01-15T00:52:57;1.50;97.20
22645;DHT22;11489;50.834;6.752;2024-01-15T00:55:23;1.50;97.20
22645;DHT22;11489;50.834;6.752;2024-01-15T00:57:49;1.50;97.20
22645;DHT22;11489;50.834;6.752;2024-01-15T01:00:14;1.50;97.20
22645;DHT22;11489;50.834;6.752;2024-01-15T01:02:40;1.50;97.20
22645;DHT22;11489;50.834;6.752;2024-01-15T01:05:06;1.50;97.20
22645;DHT22;11489;50.834;6.752;2024-01-15T01:07:32;1.60;97.20
22645;DHT22;11489;50.834;6.752;2024-01-15T01:09:57;1.60;97.20
22645;DHT22;11489;50.834;6.752;2024-01-15T01:12:23;1.60;97.10
22645;DHT22;11489;50.834;6.752;2024-01-15T01:14:49;1.60;97.10
22645;DHT22;11489;50.834;6.752;2024-01-15T01:17:14;1.60;97.10
22645;DHT22;11489;50.834;6.752;2024-01-15T01:19:40;1.60;97.10
22645;DHT22;11489;50.834;6.752;2024-01-15T01:22:06;1.50;97.00
22645;DHT22;11489;50.834;6.752;2024-01-15T01:24:31;1.50;97.00
22645;DHT22;11489;50.834;6.752;2024-01-15T01:26:57;1.50;97.00
22645;DHT22;11489;50.834;6.752;2024-01-15T01:29:23;1.50;97.00
22645;DHT22;11489;50.834;6.752;2024-01-15T01:31:48;1.40;97.10
22645;DHT22;11489;50.834;6.752;2024-01-15T01:34:15;1.50;97.20
22645;DHT22;11489;50.834;6.752;2024-01-15T01:36:42;1.40;97.40
22645;DHT22;11489;50.834;6.752;2024-01-15T01:39:07;1.50;97.20
22645;DHT22;11489;50.834;6.752;2024-01-15T01:41:33;1.50;97.20
22645;DHT22;11489;50.834;6.752;2024-01-15T01:43:59;1.50;97.20
22645;DHT22;11489;50.834;6.752;2024-01-15T01:46:26;1.50;97.20
22645;DHT22;11489;50.834;6.752;2024-01-15T01:48:53;1.50;97.20
22645;DHT22;11489;50.834;6.752;2024-01-15T01:51:19;1.40;97.10
22645;DHT22;11489;50.834;6.752;2024-01-15T01:53:46;1.50;97.20
22645;DHT22;11489;50.834;6.752;2024-01-15T01:56:12;1.50;97.20
22645;DHT22;11489;50.834;6.752;2024-01-15T01:58:38;1.50;97.20
22645;DHT22;11489;50.834;6.752;2024-01-15T02:01:05;1.40;97.10
22645;DHT22;11489;50.834;6.752;2024-01-15T02:03:31;1.40;97.10
22645;DHT22;11489;50.834;6.752;2024-01-15T02:05:57;1.40;97.20
22645;DHT22;11489;50.834;6.752;2024-01-15T02:08:25;1.50;97.20
22645;DHT22;11489;50.834;6.752;2024-01-15T02:10:50;1.40;97.20
22645;DHT22;11489;50.834;6.752;2024-01-15T02:13:17;1.40;97.20
22645;DHT22;11489;50.834;6.752;2024-01-15T02:15:43;1.40;97.20
22645;DHT22;11489;50.834;6.752;2024-01-15T02:18:09;1.40;97.30
22645;DHT22;11489;50.834;6.752;2024-01-15T02:20:35;1.40;97.30
22645;DHT22;11489;50.834;6.752;2024-01-15T02:23:14;1.40;97.30
22645;DHT22;11489;50.834;6.752;2024-01-15T02:25:42;1.50;97.20
22645;DHT22;11489;50.834;6.752;2024-01-15T02:28:13;1.40;97.20
22645;DHT22;11489;50.834;6.752;2024-01-15T02:30:41;1.40;97.20
22645;DHT22;11489;50.834;6.752;2024-01-15T02:33:10;1.40;97.20
22645;DHT22;11489;50.834;6.752;2024-01-15T02:35:36;1.40;97.20
22645;DHT22;11489;50.834;6.752;2024-01-15T02:38:03;1.40;97.20
22645;DHT22;11489;50.834;6.752;2024-01-15T02:40:29;1.40;97.20
22645;DHT22;11489;50.834;6.752;2024-01-15T02:42:54;1.40;97.20
22645;DHT22;11489;50.834;6.752;2024-01-15T02:45:21;1.40;97.20
22645;DHT22;11489;50.834;6.752;2024-01-15T02:47:47;1.40;97.20
22645;DHT22;11489;50.834;6.752;2024-01-15T02:50:13;1.40;97.20
22645;DHT22;11489;50.834;6.752;2024-01-15T02:52:38;1.40;97.10
22645;DHT22;11489;50.834;6.752;2024-01-15T02:55:04;1.40;97.20
22645;DHT22;11489;50.834;6.752;2024-01-15T02:57:30;1.40;97.20
22645;DHT22;11489;50.834;6.752;2024-01-15T02:59:56;1.40;97.20
22645;DHT22;11489;50.834;6.752;2024-01-15T03:02:22;1.30;97.20
22645;DHT22;11489;50.834;6.752;2024-01-15T03:04:47;1.30;97.20
22645;DHT22;11489;50.834;6.752;2024-01-15T03:07:13;1.30;97.20
22645;DHT22;11489;50.834;6.752;2024-01-15T03:09:39;1.30;97.20
22645;DHT22;11489;50.834;6.752;2024-01-15T03:12:05;1.30;97.20
22645;DHT22;11489;50.834;6.752;2024-01-15T03:14:31;1.30;97.30
22645;DHT22;11489;50.834;6.752;2024-01-15T03:16:56;1.30;97.30
22645;DHT22;11489;50.834;6.752;2024-01-15T03:19:22;1.30;97.30
22645;DHT22;11489;50.834;6.752;2024-01-15T03:21:48;1.30;97.30
22645;DHT22;11489;50.834;6.752;2024-01-15T03:24:13;1.30;97.30
22645;DHT22;11489;50.834;6.752;2024-01-15T03:26:39;1.30;97.30
22645;DHT22;11489;50.834;6.752;2024-01-15T03:29:05;1.30;97.30
22645;DHT22;11489;50.834;6.752;2024-01-15T03:31:31;1.30;97.30
22645;DHT22;11489;50.834;6.752;2024-01-15T03:33:57;1.30;97.40
22645;DHT22;11489;50.834;6.752;2024-01-15T03:36:22;1.30;97.40
22645;DHT22;11489;50.834;6.752;2024-01-15T03:38:48;1.30;97.40
22645;DHT22;11489;50.834;6.752;2024-01-15T03:41:14;1.40;97.50
22645;DHT22;11489;50.834;6.752;2024-01-15T03:43:39;1.40;97.40
22645;DHT22;11489;50.834;6.752;2024-01-15T03:46:05;1.40;97.40
22645;DHT22;11489;50.834;6.752;2024-01-15T03:48:31;1.40;97.40
22645;DHT22;11489;50.834;6.752;2024-01-15T03:50:57;1.40;97.40
22645;DHT22;11489;50.834;6.752;2024-01-15T03:53:23;1.40;97.40
22645;DHT22;11489;50.834;6.752;2024-01-15T03:55:49;1.40;97.40
22645;DHT22;11489;50.834;6.752;2024-01-15T03:58:15;1.40;97.40
22645;DHT22;11489;50.834;6.752;2024-01-15T04:00:41;1.40;97.40
22645;DHT22;11489;50.834;6.752;2024-01-15T04:03:07;1.40;97.40
22645;DHT22;11489;50.834;6.752;2024-01-15T04:05:33;1.50;97.40
22645;DHT22;11489;50.834;6.752;2024-01-15T04:07:58;1.50;97.40
22645;DHT22;11489;50.834;6.752;2024-01-15T04:10:24;1.50;97.40
22645;DHT22;11489;50.834;6.752;2024-01-15T04:12:50;1.50;97.40
22645;DHT22;11489;50.834;6.752;2024-01-15T04:15:15;1.50;97.40
22645;DHT22;11489;50.834;6.752;2024-01-15T04:17:41;1.50;97.40
22645;DHT22;11489;50.834;6.752;2024-01-15T04:20:07;1.50;97.40
22645;DHT22;11489;50.834;6.752;2024-01-15T04:22:35;1.50;97.40
22645;DHT22;11489;50.834;6.752;2024-01-15T04:25:01;1.50;97.30
22645;DHT22;11489;50.834;6.752;2024-01-15T04:27:27;1.50;97.30
22645;DHT22;11489;50.834;6.752;2024-01-15T04:29:53;1.50;97.30
22645;DHT22;11489;50.834;6.752;2024-01-15T04:32:18;1.50;97.30
22645;DHT22;11489;50.834;6.752;2024-01-15T04:34:44;1.50;97.30
22645;DHT22;11489;50.834;6.752;2024-01-15T04:37:10;1.50;97.30
22645;DHT22;11489;50.834;6.752;2024-01-15T04:39:35;1.50;97.30
22645;DHT22;11489;50.834;6.752;2024-01-15T04:42:01;1.50;97.40
22645;DHT22;11489;50.834;6.752;2024-01-15T04:44:28;1.60;97.40
22645;DHT22;11489;50.834;6.752;2024-01-15T04:46:54;1.60;97.50
22645;DHT22;11489;50.834;6.752;2024-01-15T04:49:20;1.60;97.50
22645;DHT22;11489;50.834;6.752;2024-01-15T04:51:45;1.60;97.50
22645;DHT22;11489;50.834;6.752;2024-01-15T04:54:11;1.70;97.50
22645;DHT22;11489;50.834;6.752;2024-01-15T04:56:37;1.60;97.40
22645;DHT22;11489;50.834;6.752;2024-01-15T04:59:03;1.70;97.50
22645;DHT22;11489;50.834;6.752;2024-01-15T05:01:32;1.60;97.50
22645;DHT22;11489;50.834;6.752;2024-01-15T05:03:58;1.60;97.50
22645;DHT22;11489;50.834;6.752;2024-01-15T05:06:23;1.70;97.50
22645;DHT22;11489;50.834;6.752;2024-01-15T05:08:49;1.70;97.50
22645;DHT22;11489;50.834;6.752;2024-01-15T05:11:15;1.70;97.50
22645;DHT22;11489;50.834;6.752;2024-01-15T05:13:41;1.70;97.40
22645;DHT22;11489;50.834;6.752;2024-01-15T05:16:07;1.70;97.40
22645;DHT22;11489;50.834;6.752;2024-01-15T05:18:32;1.70;97.40
22645;DHT22;11489;50.834;6.752;2024-01-15T05:20:58;1.70;97.40
22645;DHT22;11489;50.834;6.752;2024-01-15T05:23:24;1.70;97.30
22645;DHT22;11489;50.834;6.752;2024-01-15T05:25:49;1.70;97.30
22645;DHT22;11489;50.834;6.752;2024-01-15T05:28:15;1.70;97.30
22645;DHT22;11489;50.834;6.752;2024-01-15T05:30:41;1.60;97.30
22645;DHT22;11489;50.834;6.752;2024-01-15T05:33:07;1.70;97.30
22645;DHT22;11489;50.834;6.752;2024-01-15T05:35:33;1.60;97.30
22645;DHT22;11489;50.834;6.752;2024-01-15T05:37:59;1.60;97.30
22645;DHT22;11489;50.834;6.752;2024-01-15T05:40:24;1.60;97.20
22645;DHT22;11489;50.834;6.752;2024-01-15T05:42:50;1.60;97.20
22645;DHT22;11489;50.834;6.752;2024-01-15T05:45:16;1.60;97.30
22645;DHT22;11489;50.834;6.752;2024-01-15T05:47:41;1.60;97.30
22645;DHT22;11489;50.834;6.752;2024-01-15T05:50:08;1.60;97.30
22645;DHT22;11489;50.834;6.752;2024-01-15T05:52:34;1.60;97.30
22645;DHT22;11489;50.834;6.752;2024-01-15T05:54:59;1.60;97.40
22645;DHT22;11489;50.834;6.752;2024-01-15T05:57:25;1.60;97.70
22645;DHT22;11489;50.834;6.752;2024-01-15T05:59:51;1.60;97.30
22645;DHT22;11489;50.834;6.752;2024-01-15T06:02:17;1.50;97.30
22645;DHT22;11489;50.834;6.752;2024-01-15T06:04:42;1.50;97.30
22645;DHT22;11489;50.834;6.752;2024-01-15T06:07:08;1.50;97.40
22645;DHT22;11489;50.834;6.752;2024-01-15T06:09:33;1.50;97.40
22645;DHT22;11489;50.834;6.752;2024-01-15T06:11:59;1.50;97.50
22645;DHT22;11489;50.834;6.752;2024-01-15T06:14:25;1.50;97.50
22645;DHT22;11489;50.834;6.752;2024-01-15T06:16:52;1.50;97.60
22645;DHT22;11489;50.834;6.752;2024-01-15T06:19:18;1.50;97.60
22645;DHT22;11489;50.834;6.752;2024-01-15T06:21:43;1.60;97.70
22645;DHT22;11489;50.834;6.752;2024-01-15T06:24:09;1.60;97.70
22645;DHT22;11489;50.834;6.752;2024-01-15T06:26:35;1.50;97.70
22645;DHT22;11489;50.834;6.752;2024-01-15T06:29:01;1.60;97.70
22645;DHT22;11489;50.834;6.752;2024-01-15T06:31:28;1.50;97.60
22645;DHT22;11489;50.834;6.752;2024-01-15T06:33:55;1.60;97.60
22645;DHT22;11489;50.834;6.752;2024-01-15T06:36:21;1.60;97.50
22645;DHT22;11489;50.834;6.752;2024-01-15T06:38:47;1.60;97.50
22645;DHT22;11489;50.834;6.752;2024-01-15T06:41:13;1.50;97.50
22645;DHT22;11489;50.834;6.752;2024-01-15T06:43:38;1.50;97.50
22645;DHT22;11489;50.834;6.752;2024-01-15T06:46:04;1.50;97.50
22645;DHT22;11489;50.834;6.752;2024-01-15T06:48:30;1.60;97.50
22645;DHT22;11489;50.834;6.752;2024-01-15T06:50:55;1.50;97.50
22645;DHT22;11489;50.834;6.752;2024-01-15T06:53:21;1.50;97.60
22645;DHT22;11489;50.834;6.752;2024-01-15T06:55:47;1.50;97.60
22645;DHT22;11489;50.834;6.752;2024-01-15T06:58:14;1.50;97.60
22645;DHT22;11489;50.834;6.752;2024-01-15T07:00:40;1.50;97.60
22645;DHT22;11489;50.834;6.752;2024-01-15T07:03:06;1.50;97.60
22645;DHT22;11489;50.834;6.752;2024-01-15T07:05:31;1.60;97.70
22645;DHT22;11489;50.834;6.752;2024-01-15T07:07:57;1.50;97.70
22645;DHT22;11489;50.834;6.752;2024-01-15T07:10:23;1.50;97.70
22645;DHT22;11489;50.834;6.752;2024-01-15T07:12:49;1.50;97.70
22645;DHT22;11489;50.834;6.752;2024-01-15T07:15:15;1.50;97.70
22645;DHT22;11489;50.834;6.752;2024-01-15T07:17:41;1.50;97.70
22645;DHT22;11489;50.834;6.752;2024-01-15T07:20:08;1.50;97.70
22645;DHT22;11489;50.834;6.752;2024-01-15T07:22:37;1.50;97.80
22645;DHT22;11489;50.834;6.752;2024-01-15T07:25:03;1.60;97.80
22645;DHT22;11489;50.834;6.752;2024-01-15T07:27:31;1.60;97.80
22645;DHT22;11489;50.834;6.752;2024-01-15T07:29:57;1.60;97.80
22645;DHT22;11489;50.834;6.752;2024-01-15T07:32:23;1.60;97.80
22645;DHT22;11489;50.834;6.752;2024-01-15T07:34:49;1.60;97.80
22645;DHT22;11489;50.834;6.752;2024-01-15T07:37:15;1.60;97.90
22645;DHT22;11489;50.834;6.752;2024-01-15T07:39:40;1.70;97.90
22645;DHT22;11489;50.834;6.752;2024-01-15T07:42:06;1.70;97.90
22645;DHT22;11489;50.834;6.752;2024-01-15T07:44:33;1.70;97.90
22645;DHT22;11489;50.834;6.752;2024-01-15T07:46:59;1.70;98.20
22645;DHT22;11489;50.834;6.752;2024-01-15T07:49:25;1.80;97.90
22645;DHT22;11489;50.834;6.752;2024-01-15T07:51:50;1.80;97.90
22645;DHT22;11489;50.834;6.752;2024-01-15T07:54:16;1.80;98.20
22645;DHT22;11489;50.834;6.752;2024-01-15T07:56:59;1.80;97.90
22645;DHT22;11489;50.834;6.752;2024-01-15T07:59:25;1.90;97.80
22645;DHT22;11489;50.834;6.752;2024-01-15T08:01:51;1.90;97.90
22645;DHT22;11489;50.834;6.752;2024-01-15T08:04:17;1.90;97.90
22645;DHT22;11489;50.834;6.752;2024-01-15T08:06:43;1.90;97.90
22645;DHT22;11489;50.834;6.752;2024-01-15T08:09:08;1.90;97.80
22645;DHT22;11489;50.834;6.752;2024-01-15T08:11:35;2.00;97.90
22645;DHT22;11489;50.834;6.752;2024-01-15T08:14:01;2.00;97.80
22645;DHT22;11489;50.834;6.752;2024-01-15T08:16:26;2.00;97.80
22645;DHT22;11489;50.834;6.752;2024-01-15T08:18:53;2.00;97.80
22645;DHT22;11489;50.834;6.752;2024-01-15T08:21:19;2.10;97.80
22645;DHT22;11489;50.834;6.752;2024-01-15T08:23:45;2.10;97.80
22645;DHT22;11489;50.834;6.752;2024-01-15T08:26:10;2.10;97.80
22645;DHT22;11489;50.834;6.752;2024-01-15T08:28:36;2.10;97.80
22645;DHT22;11489;50.834;6.752;2024-01-15T08:31:02;2.20;97.80
22645;DHT22;11489;50.834;6.752;2024-01-15T08:33:28;2.20;97.80
22645;DHT22;11489;50.834;6.752;2024-01-15T08:35:55;2.20;97.70
22645;DHT22;11489;50.834;6.752;2024-01-15T08:38:20;2.20;97.70
22645;DHT22;11489;50.834;6.752;2024-01-15T08:40:46;2.30;97.70
22645;DHT22;11489;50.834;6.752;2024-01-15T08:43:12;2.30;97.70
22645;DHT22;11489;50.834;6.752;2024-01-15T08:45:38;2.30;97.60
22645;DHT22;11489;50.834;6.752;2024-01-15T08:48:04;2.30;97.60
22645;DHT22;11489;50.834;6.752;2024-01-15T08:50:30;2.30;97.70
22645;DHT22;11489;50.834;6.752;2024-01-15T08:52:57;2.30;97.70
22645;DHT22;11489;50.834;6.752;2024-01-15T08:55:23;2.30;97.70
22645;DHT22;11489;50.834;6.752;2024-01-15T08:57:49;2.40;97.70
22645;DHT22;11489;50.834;6.752;2024-01-15T09:00:15;2.40;97.70
22645;DHT22;11489;50.834;6.752;2024-01-15T09:02:42;2.40;97.60
22645;DHT22;11489;50.834;6.752;2024-01-15T09:05:08;2.40;97.60
22645;DHT22;11489;50.834;6.752;2024-01-15T09:07:33;2.40;97.60
22645;DHT22;11489;50.834;6.752;2024-01-15T09:09:59;2.40;97.50
22645;DHT22;11489;50.834;6.752;2024-01-15T09:12:26;2.40;97.50
22645;DHT22;11489;50.834;6.752;2024-01-15T09:14:51;2.40;97.50
22645;DHT22;11489;50.834;6.752;2024-01-15T09:17:19;2.40;97.40
22645;DHT22;11489;50.834;6.752;2024-01-15T09:19:45;2.40;97.40
22645;DHT22;11489;50.834;6.752;2024-01-15T09:22:13;2.40;97.40
22645;DHT22;11489;50.834;6.752;2024-01-15T09:24:42;2.40;97.40
22645;DHT22;11489;50.834;6.752;2024-01-15T09:27:08;2.40;97.20
22645;DHT22;11489;50.834;6.752;2024-01-15T09:29:33;2.40;97.10
22645;DHT22;11489;50.834;6.752;2024-01-15T09:31:59;2.30;97.00
22645;DHT22;11489;50.834;6.752;2024-01-15T09:34:25;2.30;97.00
22645;DHT22;11489;50.834;6.752;2024-01-15T09:36:50;2.30;96.90
22645;DHT22;11489;50.834;6.752;2024-01-15T09:39:16;2.20;96.90
22645;DHT22;11489;50.834;6.752;2024-01-15T09:41:42;2.20;96.90
22645;DHT22;11489;50.834;6.752;2024-01-15T09:44:08;2.10;96.80
22645;DHT22;11489;50.834;6.752;2024-01-15T09:46:35;2.00;96.80
22645;DHT22;11489;50.834;6.752;2024-01-15T09:49:02;2.00;96.80
22645;DHT22;11489;50.834;6.752;2024-01-15T09:51:31;1.90;96.90
22645;DHT22;11489;50.834;6.752;2024-01-15T09:53:57;1.90;97.00
22645;DHT22;11489;50.834;6.752;2024-01-15T09:56:24;1.80;97.10
22645;DHT22;11489;50.834;6.752;2024-01-15T09:58:50;1.80;97.20
22645;DHT22;11489;50.834;6.752;2024-01-15T10:01:20;1.80;97.30
22645;DHT22;11489;50.834;6.752;2024-01-15T10:03:46;1.80;97.40
22645;DHT22;11489;50.834;6.752;2024-01-15T10:06:15;1.80;97.40
22645;DHT22;11489;50.834;6.752;2024-01-15T10:08:47;1.80;97.50
22645;DHT22;11489;50.834;6.752;2024-01-15T10:11:13;1.80;97.50
22645;DHT22;11489;50.834;6.752;2024-01-15T10:13:39;1.80;97.50
22645;DHT22;11489;50.834;6.752;2024-01-15T10:16:05;1.80;97.50
22645;DHT22;11489;50.834;6.752;2024-01-15T10:18:32;1.80;97.50
22645;DHT22;11489;50.834;6.752;2024-01-15T10:20:58;1.80;97.50
22645;DHT22;11489;50.834;6.752;2024-01-15T10:23:24;1.80;97.50
22645;DHT22;11489;50.834;6.752;2024-01-15T10:25:50;1.80;97.50
22645;DHT22;11489;50.834;6.752;2024-01-15T10:28:19;1.80;97.60
22645;DHT22;11489;50.834;6.752;2024-01-15T10:30:45;1.80;97.70
22645;DHT22;11489;50.834;6.752;2024-01-15T10:33:11;1.80;97.70
22645;DHT22;11489;50.834;6.752;2024-01-15T10:35:38;1.80;97.70
22645;DHT22;11489;50.834;6.752;2024-01-15T10:38:05;1.80;97.80
22645;DHT22;11489;50.834;6.752;2024-01-15T10:40:31;1.80;97.80
22645;DHT22;11489;50.834;6.752;2024-01-15T10:42:57;1.80;97.70
22645;DHT22;11489;50.834;6.752;2024-01-15T10:45:23;1.80;97.60
22645;DHT22;11489;50.834;6.752;2024-01-15T10:47:50;1.80;97.40
22645;DHT22;11489;50.834;6.752;2024-01-15T10:50:15;1.80;97.40
22645;DHT22;11489;50.834;6.752;2024-01-15T10:52:42;1.80;97.40
22645;DHT22;11489;50.834;6.752;2024-01-15T10:55:11;1.70;97.30
22645;DHT22;11489;50.834;6.752;2024-01-15T10:57:37;1.70;97.40
22645;DHT22;11489;50.834;6.752;2024-01-15T11:00:04;1.70;97.40
22645;DHT22;11489;50.834;6.752;2024-01-15T11:02:36;1.70;97.50
22645;DHT22;11489;50.834;6.752;2024-01-15T11:05:03;1.60;97.50
22645;DHT22;11489;50.834;6.752;2024-01-15T11:07:30;1.60;97.50
22645;DHT22;11489;50.834;6.752;2024-01-15T11:09:56;1.60;97.50
22645;DHT22;11489;50.834;6.752;2024-01-15T11:12:24;1.60;97.50
22645;DHT22;11489;50.834;6.752;2024-01-15T11:14:50;1.60;97.50
22645;DHT22;11489;50.834;6.752;2024-01-15T11:17:17;1.60;97.60
22645;DHT22;11489;50.834;6.752;2024-01-15T11:19:50;1.60;97.60
22645;DHT22;11489;50.834;6.752;2024-01-15T11:25:04;1.60;97.60
22645;DHT22;11489;50.834;6.752;2024-01-15T11:27:45;1.60;97.60
22645;DHT22;11489;50.834;6.752;2024-01-15T11:30:13;1.60;97.60
22645;DHT22;11489;50.834;6.752;2024-01-15T11:32:40;1.60;97.70
22645;DHT22;11489;50.834;6.752;2024-01-15T11:35:09;1.50;97.80
22645;DHT22;11489;50.834;6.752;2024-01-15T11:40:20;1.60;98.00
22645;DHT22;11489;50.834;6.752;2024-01-15T11:42:46;1.60;98.10
22645;DHT22;11489;50.834;6.752;2024-01-15T11:45:13;1.70;98.20
22645;DHT22;11489;50.834;6.752;2024-01-15T11:50:26;1.80;98.10
22645;DHT22;11489;50.834;6.752;2024-01-15T11:53:03;1.80;98.10
22645;DHT22;11489;50.834;6.752;2024-01-15T11:55:38;1.80;98.10
22645;DHT22;11489;50.834;6.752;2024-01-15T11:58:08;1.90;98.10
22645;DHT22;11489;50.834;6.752;2024-01-15T12:00:45;1.90;98.10
22645;DHT22;11489;50.834;6.752;2024-01-15T12:03:12;1.90;98.10
22645;DHT22;11489;50.834;6.752;2024-01-15T12:05:38;1.90;98.10
22645;DHT22;11489;50.834;6.752;2024-01-15T12:08:04;1.90;98.10
22645;DHT22;11489;50.834;6.752;2024-01-15T12:10:40;2.00;98.10
22645;DHT22;11489;50.834;6.752;2024-01-15T12:13:11;2.00;98.10
22645;DHT22;11489;50.834;6.752;2024-01-15T12:15:38;2.00;98.20
22645;DHT22;11489;50.834;6.752;2024-01-15T12:18:08;2.10;98.20
22645;DHT22;11489;50.834;6.752;2024-01-15T12:20:34;2.20;98.30
22645;DHT22;11489;50.834;6.752;2024-01-15T12:23:02;2.20;98.20
22645;DHT22;11489;50.834;6.752;2024-01-15T12:25:32;2.20;98.30
22645;DHT22;11489;50.834;6.752;2024-01-15T12:27:59;2.30;98.80
22645;DHT22;11489;50.834;6.752;2024-01-15T12:30:26;2.50;99.30
22645;DHT22;11489;50.834;6.752;2024-01-15T12:32:52;2.70;99.80
22645;DHT22;11489;50.834;6.752;2024-01-15T12:35:18;2.90;99.90
22645;DHT22;11489;50.834;6.752;2024-01-15T12:37:44;3.10;99.80
22645;DHT22;11489;50.834;6.752;2024-01-15T12:40:12;3.20;99.20
22645;DHT22;11489;50.834;6.752;2024-01-15T12:42:40;3.30;98.70
22645;DHT22;11489;50.834;6.752;2024-01-15T12:45:06;3.40;98.30
22645;DHT22;11489;50.834;6.752;2024-01-15T12:47:32;3.30;97.90
22645;DHT22;11489;50.834;6.752;2024-01-15T12:49:58;3.30;97.80
22645;DHT22;11489;50.834;6.752;2024-01-15T12:52:28;3.30;97.50
22645;DHT22;11489;50.834;6.752;2024-01-15T12:54:54;3.30;97.30
22645;DHT22;11489;50.834;6.752;2024-01-15T12:57:20;3.20;97.30
22645;DHT22;11489;50.834;6.752;2024-01-15T12:59:46;3.20;97.30
22645;DHT22;11489;50.834;6.752;2024-01-15T13:02:12;3.20;97.40
22645;DHT22;11489;50.834;6.752;2024-01-15T13:04:38;3.10;97.30
22645;DHT22;11489;50.834;6.752;2024-01-15T13:07:05;3.10;97.30
22645;DHT22;11489;50.834;6.752;2024-01-15T13:09:32;3.10;97.30
22645;DHT22;11489;50.834;6.752;2024-01-15T13:11:58;3.10;97.30
22645;DHT22;11489;50.834;6.752;2024-01-15T13:14:24;3.10;97.20
22645;DHT22;11489;50.834;6.752;2024-01-15T13:16:49;3.00;97.10
22645;DHT22;11489;50.834;6.752;2024-01-15T13:19:15;3.00;97.20
22645;DHT22;11489;50.834;6.752;2024-01-15T13:21:41;3.00;97.30
22645;DHT22;11489;50.834;6.752;2024-01-15T13:24:07;2.90;97.30
22645;DHT22;11489;50.834;6.752;2024-01-15T13:26:33;2.90;97.40
22645;DHT22;11489;50.834;6.752;2024-01-15T13:29:03;2.90;97.40
22645;DHT22;11489;50.834;6.752;2024-01-15T13:31:32;2.90;97.50
22645;DHT22;11489;50.834;6.752;2024-01-15T13:33:58;2.90;97.50
22645;DHT22;11489;50.834;6.752;2024-01-15T13:36:24;2.90;97.50
22645;DHT22;11489;50.834;6.752;2024-01-15T13:38:50;2.90;97.50
22645;DHT22;11489;50.834;6.752;2024-01-15T13:41:17;2.90;97.60
22645;DHT22;11489;50.834;6.752;2024-01-15T13:43:53;2.90;97.60
22645;DHT22;11489;50.834;6.752;2024-01-15T13:46:20;2.90;97.50
22645;DHT22;11489;50.834;6.752;2024-01-15T13:48:46;2.90;97.50
22645;DHT22;11489;50.834;6.752;2024-01-15T13:51:11;2.90;97.30
22645;DHT22;11489;50.834;6.752;2024-01-15T13:53:40;2.90;97.20
22645;DHT22;11489;50.834;6.752;2024-01-15T13:56:06;2.80;97.10
22645;DHT22;11489;50.834;6.752;2024-01-15T13:58:33;2.70;97.00
22645;DHT22;11489;50.834;6.752;2024-01-15T14:00:59;2.70;97.00
22645;DHT22;11489;50.834;6.752;2024-01-15T14:03:25;2.70;97.10
22645;DHT22;11489;50.834;6.752;2024-01-15T14:05:52;2.60;97.00
22645;DHT22;11489;50.834;6.752;2024-01-15T14:08:17;2.60;97.00
22645;DHT22;11489;50.834;6.752;2024-01-15T14:10:43;2.60;97.10
22645;DHT22;11489;50.834;6.752;2024-01-15T14:13:09;2.50;97.10
22645;DHT22;11489;50.834;6.752;2024-01-15T14:15:35;2.50;97.00
22645;DHT22;11489;50.834;6.752;2024-01-15T14:18:00;2.50;97.10
22645;DHT22;11489;50.834;6.752;2024-01-15T14:20:27;2.40;97.00
22645;DHT22;11489;50.834;6.752;2024-01-15T14:22:53;2.40;97.20
22645;DHT22;11489;50.834;6.752;2024-01-15T14:25:20;2.40;97.20
22645;DHT22;11489;50.834;6.752;2024-01-15T14:27:46;2.30;97.20
22645;DHT22;11489;50.834;6.752;2024-01-15T14:30:12;2.30;97.20
22645;DHT22;11489;50.834;6.752;2024-01-15T14:32:39;2.30;97.20
22645;DHT22;11489;50.834;6.752;2024-01-15T14:35:05;2.30;97.30
22645;DHT22;11489;50.834;6.752;2024-01-15T14:37:31;2.30;97.40
22645;DHT22;11489;50.834;6.752;2024-01-15T14:39:57;2.30;97.30
22645;DHT22;11489;50.834;6.752;2024-01-15T14:42:23;2.30;97.30
22645;DHT22;11489;50.834;6.752;2024-01-15T14:44:49;2.30;97.20
22645;DHT22;11489;50.834;6.752;2024-01-15T14:47:15;2.20;97.10
22645;DHT22;11489;50.834;6.752;2024-01-15T14:49:41;2.10;97.10
22645;DHT22;11489;50.834;6.752;2024-01-15T14:52:06;2.10;97.10
22645;DHT22;11489;50.834;6.752;2024-01-15T14:54:32;2.10;97.10
22645;DHT22;11489;50.834;6.752;2024-01-15T14:56:58;2.00;97.10
22645;DHT22;11489;50.834;6.752;2024-01-15T14:59:23;2.00;97.20
22645;DHT22;11489;50.834;6.752;2024-01-15T15:01:49;2.00;97.30
22645;DHT22;11489;50.834;6.752;2024-01-15T15:04:15;2.00;97.30
22645;DHT22;11489;50.834;6.752;2024-01-15T15:06:41;2.00;97.30
22645;DHT22;11489;50.834;6.752;2024-01-15T15:09:06;2.00;97.30
22645;DHT22;11489;50.834;6.752;2024-01-15T15:11:35;2.00;97.10
22645;DHT22;11489;50.834;6.752;2024-01-15T15:14:02;1.90;97.10
22645;DHT22;11489;50.834;6.752;2024-01-15T15:16:30;1.90;97.00
22645;DHT22;11489;50.834;6.752;2024-01-15T15:18:55;1.90;97.00
22645;DHT22;11489;50.834;6.752;2024-01-15T15:21:21;1.80;97.00
22645;DHT22;11489;50.834;6.752;2024-01-15T15:23:47;1.80;97.00
22645;DHT22;11489;50.834;6.752;2024-01-15T15:26:15;1.70;97.10
22645;DHT22;11489;50.834;6.752;2024-01-15T15:28:41;1.70;97.10
22645;DHT22;11489;50.834;6.752;2024-01-15T15:31:07;1.70;97.20
22645;DHT22;11489;50.834;6.752;2024-01-15T15:33:34;1.60;97.20
22645;DHT22;11489;50.834;6.752;2024-01-15T15:35:59;1.60;97.20
22645;DHT22;11489;50.834;6.752;2024-01-15T15:38:33;1.60;97.20
22645;DHT22;11489;50.834;6.752;2024-01-15T15:40:59;1.60;97.20
22645;DHT22;11489;50.834;6.752;2024-01-15T15:43:26;1.50;97.20
22645;DHT22;11489;50.834;6.752;2024-01-15T15:45:51;1.50;97.30
22645;DHT22;11489;50.834;6.752;2024-01-15T15:48:17;1.50;97.30